Flight Track Log - Related Links

Times and Time Zones

All times are in EDT time to prevent confusion due to time zone crossing. See the KAP550 flight status page for this flight to view local times or setup timezone preferences in your user account.

Time Position Orientation Groundspeed Altitude Reporting Facility
EDT Latitude Longitude Course Direction KTS MPH feet Rate Location/Type
Wed 01:16:00 PM 44.6914 -74.7242 162° South  Level Estimated
Wed 01:17:00 PM 44.6512 -74.7045 161° South  Level Estimated
Wed 01:18:00 PM 44.6111 -74.6848 161° South  Level Estimated
Wed 01:18:08 PM 44.8700 -74.6942 161° South 112 129 4,000  Level Boston Center
Wed 01:19:00 PM 44.5710 -74.6652 161° South  Level Estimated
Wed 01:19:08 PM 44.8569 -74.6369 108° East 151 174 4,500  Level Boston Center
Wed 01:20:00 PM 44.5308 -74.6455 161° South  Level Estimated
Wed 01:20:08 PM 44.8403 -74.5764 111° Southeast 158 182 5,000  Level Boston Center
Wed 01:21:00 PM 44.4907 -74.6259 161° South  Level Estimated
Wed 01:21:12 PM 44.8231 -74.5128 111° Southeast 167 192 5,500  Level Boston Center
Wed 01:22:00 PM 44.4505 -74.6064 161° South  Level Estimated
Wed 01:22:12 PM 44.8044 -74.4458 111° Southeast 175 201 6,000  Level Boston Center
Wed 01:23:00 PM 44.4104 -74.5868 161° South  Level Estimated
Wed 01:23:13 PM 44.7850 -74.3769 112° Southeast 182 209 6,500  Level Boston Center
Wed 01:24:14 PM 44.7658 -74.3072 111° Southeast 188 216 7,000 484 Climbing Boston Center
Wed 01:25:17 PM 44.7392 -74.2258 115° Southeast 192 221 7,500 435 Climbing Boston Center
Wed 01:26:18 PM 44.6883 -74.2178 174° South 187 215 7,900 197 Climbing Boston Center
Wed 01:27:19 PM 44.6383 -74.2058 170° South 184 212 7,900  Level Boston Center
Wed 01:28:20 PM 44.5878 -74.1944 171° South 184 212 7,900 48 Level Boston Center
Wed 01:29:23 PM 44.5381 -74.1839 171° South 183 211 8,000 49 Climbing Boston Center
Wed 01:30:23 PM 44.4881 -74.1725 171° South 183 211 8,000  Level Boston Center
Wed 01:31:26 PM 44.4303 -74.1600 171° South 185 213 8,000  Level Boston Center
Wed 01:32:26 PM 44.3797 -74.1481 170° South 185 213 8,000  Level Boston Center
Wed 01:33:28 PM 44.3300 -74.1364 170° South 184 212 8,000  Level Boston Center
Wed 01:34:30 PM 44.2800 -74.1253 171° South 182 209 8,000  Level Boston Center
Wed 01:35:30 PM 44.2294 -74.1158 172° South 174 200 8,000  Level Boston Center
Wed 01:36:31 PM 44.1789 -74.1047 171° South 180 207 8,000  Level Boston Center
Wed 01:37:34 PM 44.1306 -74.0942 171° South 179 206 8,000  Level Boston Center
Wed 01:38:35 PM 44.0786 -74.0833 171° South 175 201 8,000  Level Boston Center
Wed 01:39:36 PM 44.0294 -74.0728 171° South 180 207 8,000  Level Boston Center
Wed 01:40:38 PM 43.9767 -74.0614 171° South 180 207 8,000  Level Boston Center
Wed 01:41:38 PM 43.9283 -74.0528 173° South 176 203 8,000  Level Boston Center
Wed 01:42:39 PM 43.8769 -74.0394 169° South 183 211 8,000  Level Boston Center
Wed 01:43:43 PM 43.8272 -74.0300 172° South 182 209 8,000  Level Boston Center
Wed 01:44:43 PM 43.7764 -74.0183 171° South 185 213 8,000  Level Boston Center
Wed 01:45:43 PM 43.7269 -74.0089 172° South 182 209 8,000  Level Boston Center
Wed 01:46:45 PM 43.6775 -73.9986 171° South 180 207 8,000  Level Boston Center
Wed 01:47:45 PM 43.6272 -73.9861 170° South 178 205 8,000  Level Boston Center
Wed 01:48:48 PM 43.5781 -73.9761 172° South 179 206 8,000  Level Boston Center
Wed 01:49:49 PM 43.5289 -73.9661 172° South 180 207 8,000  Level Boston Center
Wed 01:50:31 PM 43.4875 -73.9578 172° South 178 205 8,000  Level Boston Center
Wed 01:50:49 PM 43.4694 -73.9544 172° South 179 206 8,000  Level Boston Center
Wed 01:51:32 PM 43.4381 -73.9467 170° South 177 204 8,000  Level Boston Center
Wed 01:51:53 PM 43.4214 -73.9422 169° South 178 205 8,000  Level Boston Center
Wed 01:52:33 PM 43.3881 -73.9383 175° South 182 209 8,000  Level Boston Center
Wed 01:52:54 PM 43.3678 -73.9331 169° South 188 216 8,000  Level Boston Center
Wed 01:53:33 PM 43.3344 -73.9256 171° South 181 208 8,000 -100 Level Boston Center
Wed 01:53:54 PM 43.3197 -73.9225 171° South 178 205 7,900 -500 Descending Boston Center
Wed 01:54:33 PM 43.2833 -73.9228 180° South 180 207 7,500 -500 Descending Boston Center
Wed 01:54:54 PM 43.2644 -73.9217 178° South 187 215 7,400 -393 Descending Boston Center
Wed 01:55:34 PM 43.2325 -73.9200 178° South 188 216 7,100 -469 Descending Boston Center
Wed 01:55:58 PM 43.2125 -73.9217 183° South 188 216 6,900 -500 Descending Boston Center
Wed 01:56:34 PM 43.1803 -73.9228 181° South 189 217 6,600 -492 Descending Boston Center
Wed 01:56:59 PM 43.1600 -73.9217 178° South 188 216 6,400 -689 Descending Boston Center
Wed 01:57:35 PM 43.1267 -73.9219 180° South 193 222 5,900 -700 Descending Boston Center
Wed 01:57:59 PM 43.1047 -73.9225 181° South 197 227 5,700 -700 Descending Boston Center
Wed 01:58:35 PM 43.0706 -73.9233 181° South 200 230 5,200 -667 Descending Boston Center
Wed 01:59:02 PM 43.0461 -73.9244 182° South 197 227 5,000 -197 Descending Boston Center
Wed 01:59:36 PM 43.0192 -73.9233 178° South 189 217 5,000  Level Boston Center
Wed 02:00:03 PM 42.9981 -73.9256 184° South 176 203 5,000  Level Boston Center
Wed 02:00:37 PM 42.9692 -73.9267 182° South 166 191 5,000 -197 Level Boston Center
Wed 02:01:04 PM 42.9508 -73.9278 183° South 169 194 4,800 -500 Descending Boston Center
Wed 02:01:37 PM 42.9192 -73.9303 183° South 176 203 4,500 -476 Descending Boston Center
Wed 02:02:07 PM 42.8969 -73.9300 179° South 180 207 4,300 -476 Descending Boston Center
Wed 02:02:40 PM 42.8692 -73.9336 185° South 185 213 4,000 -492 Descending Boston Center
Wed 02:03:08 PM 42.8467 -73.9322 177° South 181 208 3,800 -508 Descending Boston Center
Wed 02:03:39 PM 42.8186 -73.9164 158° South 197 227 3,500 -689 Descending Boston Center
Wed 02:04:09 PM 42.7989 -73.8975 145° Southeast 194 223 3,100 -787 Descending Boston Center
Wed 02:04:40 PM 42.7739 -73.8778 150° Southeast 196 226 2,700 -885 Descending Boston Center
Wed 02:05:10 PM 42.7489 -73.8569 149° Southeast 196 226 2,200 -689 Descending Boston Center
Wed 02:05:41 PM 42.7236 -73.8492 167° South 167 192 2,000 -689 Descending Boston Center
Wed 02:06:11 PM 42.7086 -73.8389 153° Southeast 155 178 1,500 -1,000 Descending Boston Center
Wed 02:06:41 PM 42.7064 -73.8142 97° East 126 145 1,000 -900 Descending Boston Center
Wed 02:07:11 PM 42.7242 -73.8050 21° North 126 145 600 -447 Descending Boston Center
Wed 02:08:15 PM 42.7458 -73.8064 357° North 103 119 300 -145 Descending Boston Center
Wed 02:09:15 PM 42.7497 -73.8072 351° North 49 56 300  Level Boston Center

Login

Don't have an account? Register now (free) for customized features, flight alerts, and more!